Time;durP1;ratioP1;P1;durP2;ratioP2;P2;SDS_P1;SDS_P2;PMS_P1;PMS_P2;Temp;Humidity;BMP_temperature;BMP_pressure;BME280_temperature;BME280_humidity;BME280_pressure;Samples;Min_cycle;Max_cycle;Signal;HPM_P1;HPM_P2
2022/11/18 00:01:24;;;;;;;14.40;8.93;;;;;;;4.83;100.00;97817.95;4105243;85;28520;-79
2022/11/18 00:07:26;;;;;;;13.70;8.53;;;;;;;5.33;98.46;97810.24;4130338;84;28532;-80
2022/11/18 00:19:47;;;;;;;13.30;8.00;;;;;;;5.37;95.36;97809.27;4097222;86;28650;-78
2022/11/18 00:25:48;;;;;;;11.55;6.83;;;;;;;5.41;94.20;97795.77;4177117;83;28478;-80
2022/11/18 00:31:49;;;;;;;12.35;7.00;;;;;;;5.48;93.85;97797.83;4165200;83;28569;-80
2022/11/18 00:37:50;;;;;;;13.28;7.30;;;;;;;4.72;99.19;97805.69;4166602;83;28533;-79
2022/11/18 00:43:52;;;;;;;10.95;6.33;;;;;;;5.48;95.58;97813.82;4165060;83;28616;-80
2022/11/18 00:49:53;;;;;;;11.97;7.03;;;;;;;5.15;95.95;97800.43;4144761;83;28537;-80
2022/11/18 00:55:54;;;;;;;14.47;6.30;;;;;;;4.96;97.76;97806.33;4083069;85;28567;-80
2022/11/18 01:01:56;;;;;;;10.98;6.33;;;;;;;5.02;96.14;97806.23;4084824;85;28503;-81
2022/11/18 01:07:57;;;;;;;11.80;7.05;;;;;;;5.03;97.32;97803.86;4112914;84;28594;-78
2022/11/18 01:13:58;;;;;;;11.45;6.47;;;;;;;4.82;97.70;97801.69;4144493;84;28562;-78
2022/11/18 01:19:59;;;;;;;12.40;7.10;;;;;;;4.87;96.89;97795.18;4109684;84;28560;-91
2022/11/18 01:26:05;;;;;;;11.78;6.67;;;;;;;4.05;100.00;97794.44;4082965;85;28540;-86
2022/11/18 01:32:06;;;;;;;12.40;6.90;;;;;;;5.11;96.90;97780.62;4130403;85;28504;-86
2022/11/18 01:38:13;;;;;;;12.43;6.85;;;;;;;4.52;96.73;97788.63;4116409;84;28580;-87
2022/11/18 01:45:00;;;;;;;11.85;6.72;;;;;;;4.70;96.18;97796.31;4171993;84;28542;-89
2022/11/18 01:51:07;;;;;;;12.95;6.92;;;;;;;4.86;95.86;97791.69;4097473;86;28493;-88
2022/11/18 01:57:13;;;;;;;14.83;7.08;;;;;;;5.02;94.99;97776.14;4072548;86;28547;-87
2022/11/18 02:03:17;;;;;;;11.73;6.15;;;;;;;5.28;93.26;97782.94;4066639;86;28525;-90
2022/11/18 02:09:20;;;;;;;14.98;7.45;;;;;;;4.71;93.82;97782.77;4117182;85;28506;-89
2022/11/18 02:15:33;;;;;;;14.50;7.55;;;;;;;4.58;96.68;97778.44;4117544;85;28551;-88
2022/11/18 02:22:15;;;;;;;14.40;7.37;;;;;;;5.18;93.56;97763.20;4189041;83;28633;-89
2022/11/18 02:28:54;;;;;;;14.03;7.12;;;;;;;5.20;96.17;97741.12;4184256;83;28530;-88
2022/11/18 02:35:16;;;;;;;13.45;7.45;;;;;;;4.90;96.40;97743.32;4147242;84;28539;-88
2022/11/18 02:41:23;;;;;;;15.28;8.08;;;;;;;4.88;98.75;97732.88;4134904;84;28540;-91
2022/11/18 02:47:27;;;;;;;14.30;8.15;;;;;;;5.15;98.66;97737.81;4243219;82;28524;-91
2022/11/18 02:53:31;;;;;;;16.57;8.53;;;;;;;5.05;100.00;97746.88;4221840;83;28474;-89
2022/11/18 02:59:33;;;;;;;18.95;9.90;;;;;;;5.21;100.00;97756.90;4239489;82;28525;-88
2022/11/18 03:05:52;;;;;;;17.48;10.00;;;;;;;4.59;100.00;97757.43;4210558;82;28533;-90
2022/11/18 03:12:22;;;;;;;17.05;9.33;;;;;;;4.52;100.00;97752.70;4235740;82;28521;-89
2022/11/18 03:18:44;;;;;;;18.17;9.53;;;;;;;4.43;100.00;97752.70;4196090;82;28546;-90
2022/11/18 03:25:06;;;;;;;18.87;10.15;;;;;;;5.26;100.00;97733.06;4288399;83;28514;-86
2022/11/18 03:31:19;;;;;;;18.75;10.60;;;;;;;4.77;100.00;97733.12;4302588;81;28569;-83
2022/11/18 03:37:22;;;;;;;17.30;9.55;;;;;;;3.96;100.00;97738.07;4255199;82;28492;-83
2022/11/18 03:43:28;;;;;;;18.82;10.23;;;;;;;4.40;100.00;97741.97;4195522;83;28952;-87
2022/11/18 03:49:38;;;;;;;18.48;9.23;;;;;;;4.06;100.00;97738.88;4202599;83;28545;-85
2022/11/18 03:55:43;;;;;;;15.48;8.73;;;;;;;4.30;100.00;97739.84;4273601;82;28538;-85
2022/11/18 04:01:57;;;;;;;17.87;9.68;;;;;;;4.52;100.00;97737.23;4269123;82;46775;-84
2022/11/18 04:08:01;;;;;;;18.07;8.53;;;;;;;4.42;100.00;97729.78;4297407;82;29158;-74
2022/11/18 04:14:07;;;;;;;20.57;9.70;;;;;;;4.40;100.00;97710.03;4284534;82;28489;-81
2022/11/18 04:20:10;;;;;;;16.93;8.85;;;;;;;4.30;100.00;97703.92;4265894;82;28529;-82
2022/11/18 04:26:22;;;;;;;15.60;8.58;;;;;;;4.81;100.00;97702.86;4249938;82;28531;-82
2022/11/18 04:32:35;;;;;;;14.50;7.75;;;;;;;4.31;100.00;97700.73;4294660;82;28539;-82
2022/11/18 04:38:49;;;;;;;16.95;8.08;;;;;;;4.16;100.00;97705.09;4281073;82;28575;-82
2022/11/18 04:44:55;;;;;;;19.95;9.20;;;;;;;4.37;100.00;97709.66;4235694;82;28509;-83
2022/11/18 04:51:06;;;;;;;15.95;9.08;;;;;;;5.67;100.00;97684.39;4265620;81;28534;-83
2022/11/18 04:57:23;;;;;;;19.32;9.58;;;;;;;6.21;100.00;97687.44;4160277;83;28497;-82
2022/11/18 05:03:44;;;;;;;16.77;8.80;;;;;;;5.89;100.00;97698.48;4199861;83;28487;-84
2022/11/18 05:09:55;;;;;;;15.80;8.90;;;;;;;5.86;100.00;97695.77;4175171;83;28583;-84
2022/11/18 05:16:10;;;;;;;20.75;8.95;;;;;;;5.95;100.00;97697.03;4127163;85;28508;-82
2022/11/18 05:22:41;;;;;;;17.10;9.33;;;;;;;6.09;100.00;97702.96;4188053;83;28513;-84
2022/11/18 05:28:57;;;;;;;14.70;8.03;;;;;;;5.91;100.00;97704.40;4152994;84;28544;-85
2022/11/18 05:35:18;;;;;;;17.37;8.73;;;;;;;5.64;100.00;97717.69;4164299;84;28554;-83
2022/11/18 05:48:16;;;;;;;17.98;9.08;;;;;;;5.49;100.00;97719.47;4121479;85;28600;-80
2022/11/18 05:54:31;;;;;;;18.82;9.95;;;;;;;5.66;100.00;97717.44;4129578;85;28514;-80
2022/11/18 06:00:44;;;;;;;17.75;9.35;;;;;;;5.77;100.00;97723.83;4154057;85;28470;-79
2022/11/18 06:07:09;;;;;;;15.08;8.73;;;;;;;6.20;100.00;97723.19;4104957;85;28553;-80
2022/11/18 06:13:25;;;;;;;15.58;9.20;;;;;;;5.88;100.00;97740.34;4092540;85;28519;-80
2022/11/18 06:19:38;;;;;;;15.50;8.68;;;;;;;5.86;99.43;97733.90;4190727;83;28538;-83
2022/11/18 06:25:52;;;;;;;15.95;8.58;;;;;;;5.47;100.00;97748.22;4159584;83;28612;-80
2022/11/18 06:32:09;;;;;;;16.30;8.33;;;;;;;5.34;100.00;97749.73;4192526;85;28507;-82
2022/11/18 06:38:36;;;;;;;15.88;8.10;;;;;;;5.57;100.00;97756.47;4187047;84;28563;-79
2022/11/18 06:45:01;;;;;;;;;;;;;;;5.89;100.00;97767.31;4160768;85;28524;-82
2022/11/18 06:51:08;;;;;;;16.90;9.15;;;;;;;6.15;100.00;97763.92;4195178;83;20409;-84
2022/11/18 06:57:22;;;;;;;16.80;8.20;;;;;;;5.79;100.00;97761.73;4180830;83;28501;-87
2022/11/18 07:03:35;;;;;;;16.12;8.50;;;;;;;6.18;97.78;97764.78;4200137;82;28588;-85
2022/11/18 07:09:43;;;;;;;16.42;8.93;;;;;;;6.35;97.47;97790.23;4130796;84;28541;-87
2022/11/18 07:22:00;;;;;;;17.30;8.70;;;;;;;5.95;95.72;97784.24;4124401;84;28541;-82
2022/11/18 07:28:02;;;;;;;16.85;9.03;;;;;;;6.53;95.67;97777.79;4125353;84;28631;-86
2022/11/18 07:34:03;;;;;;;16.93;8.73;;;;;;;6.70;93.71;97779.98;4152465;84;28523;-86
2022/11/18 07:40:06;;;;;;;17.62;8.83;;;;;;;6.86;93.97;97764.27;4140972;84;28509;-84
2022/11/18 07:46:23;;;;;;;16.95;9.60;;;;;;;7.02;92.92;97764.03;4142259;84;28531;-85
2022/11/18 07:52:25;;;;;;;15.95;7.83;;;;;;;7.32;94.97;97756.27;4152026;84;28565;-85
2022/11/18 07:58:27;;;;;;;16.50;7.62;;;;;;;5.89;100.00;97753.17;4142126;84;28506;-87
2022/11/18 08:04:28;;;;;;;16.57;7.97;;;;;;;6.08;98.30;97766.69;4144700;84;28482;-84
2022/11/18 08:10:30;;;;;;;15.35;7.30;;;;;;;5.74;99.42;97758.44;4088370;85;28510;-84
2022/11/18 08:16:31;;;;;;;14.23;7.42;;;;;;;5.75;100.00;97769.39;4044297;86;28534;-84
2022/11/18 08:22:32;;;;;;;14.80;7.25;;;;;;;6.04;98.75;97773.55;4193348;83;28472;-86
2022/11/18 08:28:34;;;;;;;11.20;6.58;;;;;;;6.18;98.03;97768.78;4253109;82;28540;-85
2022/11/18 08:34:35;;;;;;;13.10;7.58;;;;;;;6.73;95.84;97778.71;4288841;82;28541;-87
2022/11/18 08:40:37;;;;;;;15.23;7.12;;;;;;;5.53;99.64;97788.61;4275889;82;28518;-86
2022/11/18 08:46:38;;;;;;;13.15;6.92;;;;;;;5.57;99.60;97787.12;4306821;81;28488;-84
2022/11/18 08:52:39;;;;;;;13.78;6.90;;;;;;;6.52;99.68;97794.86;4273414;82;28588;-86
2022/11/18 08:58:41;;;;;;;12.75;6.80;;;;;;;6.60;98.29;97797.68;4273137;82;28447;-86
2022/11/18 09:04:43;;;;;;;13.13;6.67;;;;;;;6.58;94.84;97796.57;4274952;82;28576;-86
2022/11/18 09:10:44;;;;;;;12.53;6.45;;;;;;;6.86;96.54;97801.67;4262737;82;28551;-87
2022/11/18 09:16:45;;;;;;;13.70;7.72;;;;;;;6.55;96.69;97804.52;4262151;82;28538;-88
2022/11/18 09:22:47;;;;;;;13.45;7.60;;;;;;;6.66;94.64;97800.22;4171563;83;28563;-86
2022/11/18 09:28:51;;;;;;;15.43;7.87;;;;;;;7.44;92.83;97798.17;4157992;84;28526;-87
2022/11/18 09:34:53;;;;;;;12.82;7.97;;;;;;;7.03;92.51;97803.06;4135085;84;28500;-86
2022/11/18 09:41:05;;;;;;;14.53;8.65;;;;;;;6.74;92.01;97823.61;4157249;84;28545;-85
2022/11/18 09:47:29;;;;;;;14.28;8.70;;;;;;;7.41;90.30;97808.82;4157787;84;28605;-85
2022/11/18 09:53:30;;;;;;;15.32;8.28;;;;;;;6.89;90.02;97803.07;4154386;84;28597;-86
2022/11/18 09:59:32;;;;;;;14.78;8.20;;;;;;;7.53;86.56;97823.48;4154739;84;28551;-84
2022/11/18 10:05:45;;;;;;;17.42;8.83;;;;;;;7.71;84.20;97814.41;4164360;84;28601;-84
2022/11/18 10:12:13;;;;;;;14.55;7.90;;;;;;;7.75;84.42;97820.09;4165654;84;28520;-83
2022/11/18 10:18:35;;;;;;;14.07;8.03;;;;;;;7.14;85.34;97804.08;4157253;83;28548;-83
2022/11/18 10:24:41;;;;;;;14.83;8.15;;;;;;;7.08;86.08;97818.39;4213032;83;28517;-85
2022/11/18 10:30:44;;;;;;;15.20;8.10;;;;;;;7.20;87.87;97812.47;4220208;83;28485;-83
2022/11/18 10:37:08;;;;;;;16.37;8.33;;;;;;;6.89;86.79;97806.53;4215373;82;28521;-87
2022/11/18 10:43:12;;;;;;;13.88;8.08;;;;;;;7.01;86.07;97805.17;4202377;83;28530;-86
2022/11/18 10:49:16;;;;;;;16.35;8.60;;;;;;;6.16;88.58;97822.92;4194162;83;28521;-87
2022/11/18 10:55:22;;;;;;;13.83;7.80;;;;;;;5.96;90.01;97823.22;4167232;83;28478;-87
2022/11/18 11:01:26;;;;;;;16.02;9.75;;;;;;;6.20;90.52;97828.08;4182469;83;28528;-84
2022/11/18 11:07:35;;;;;;;16.20;8.25;;;;;;;5.95;89.55;97829.59;4210438;83;28512;-86
2022/11/18 11:13:39;;;;;;;18.00;8.63;;;;;;;6.60;88.57;97821.17;4190404;83;28508;-85
2022/11/18 11:20:18;;;;;;;14.83;7.85;;;;;;;6.25;87.48;97838.05;4253351;82;28542;-93
2022/11/18 11:26:35;;;;;;;16.97;8.88;;;;;;;6.50;85.43;97839.66;4283358;82;28506;-86
2022/11/18 11:32:48;;;;;;;15.93;8.18;;;;;;;6.37;84.23;97837.52;4282893;82;28541;-87
2022/11/18 11:39:19;;;;;;;18.67;9.90;;;;;;;6.38;81.14;97832.47;4216404;82;28981;-84
2022/11/18 11:45:44;;;;;;;18.25;9.58;;;;;;;5.56;86.04;97846.00;4289731;82;28504;-83
2022/11/18 11:51:59;;;;;;;19.92;10.88;;;;;;;5.56;85.24;97821.47;4271377;81;28546;-85
2022/11/18 11:58:46;;;;;;;23.50;12.03;;;;;;;5.60;83.09;97827.70;4276775;82;28534;-82
2022/11/18 12:05:04;;;;;;;24.18;12.47;;;;;;;5.47;84.63;97824.20;4282898;81;28538;-86
2022/11/18 12:11:20;;;;;;;27.42;12.58;;;;;;;5.53;86.35;97813.94;4166257;83;28577;-84
2022/11/18 12:17:33;;;;;;;22.25;11.20;;;;;;;5.13;85.03;97825.98;4162972;83;28553;-77
2022/11/18 12:23:34;;;;;;;20.35;10.90;;;;;;;4.95;86.81;97849.98;4146825;83;28538;-77
2022/11/18 12:29:49;;;;;;;20.82;10.55;;;;;;;5.32;84.15;97838.45;4097403;85;28608;-75
2022/11/18 12:35:51;;;;;;;19.97;10.70;;;;;;;5.44;80.54;97841.45;4163228;83;28575;-79
2022/11/18 12:48:39;;;;;;;21.52;10.35;;;;;;;5.23;84.24;97848.08;4149856;84;28504;-79
2022/11/18 12:54:47;;;;;;;27.80;12.10;;;;;;;5.00;85.17;97855.47;4147890;84;28514;-89
2022/11/18 13:00:51;;;;;;;23.87;11.55;;;;;;;4.56;86.70;97862.20;4156865;84;28509;-91
2022/11/18 13:06:54;;;;;;;20.85;10.72;;;;;;;5.03;83.67;97868.33;4157883;84;28462;-90
2022/11/18 13:12:58;;;;;;;24.82;11.73;;;;;;;5.13;83.04;97867.79;4157429;84;28534;-90
2022/11/18 13:19:02;;;;;;;26.50;12.10;;;;;;;5.25;82.15;97863.86;4154267;84;28564;-89
2022/11/18 13:25:04;;;;;;;23.02;12.40;;;;;;;4.52;82.92;97879.12;4147444;84;28574;-91
2022/11/18 13:31:31;;;;;;;23.52;11.18;;;;;;;5.44;80.61;97896.61;4148913;85;28527;-89
2022/11/18 13:37:34;;;;;;;23.83;10.95;;;;;;;5.29;78.50;97899.67;4152327;84;28571;-89
2022/11/18 13:43:38;;;;;;;27.98;12.15;;;;;;;5.12;77.95;97905.63;4125900;84;29227;-93
2022/11/18 13:49:57;;;;;;;24.57;11.45;;;;;;;4.54;79.60;97895.69;4167381;84;28505;-87
2022/11/18 13:56:26;;;;;;;22.87;11.75;;;;;;;5.35;74.97;97902.78;4153375;84;28575;-86
2022/11/18 14:02:30;;;;;;;26.30;12.13;;;;;;;5.62;72.71;97908.27;4130933;84;28542;-86
2022/11/18 14:08:34;;;;;;;23.15;11.95;;;;;;;5.02;73.09;97923.98;4149142;84;28556;-87
2022/11/18 14:14:38;;;;;;;24.27;11.63;;;;;;;5.47;71.71;97922.01;4122724;84;28591;-82
2022/11/18 14:20:46;;;;;;;21.60;11.53;;;;;;;4.99;70.43;97929.23;4167308;83;28552;-84
2022/11/18 14:26:47;;;;;;;23.47;11.15;;;;;;;5.06;69.73;97927.83;4180922;83;28492;-80
2022/11/18 14:33:14;;;;;;;21.65;11.10;;;;;;;5.51;68.34;97938.66;4120191;84;28514;-84
2022/11/18 14:39:24;;;;;;;22.55;11.63;;;;;;;4.49;69.03;97943.47;4151187;84;28496;-83
2022/11/18 14:45:26;;;;;;;21.80;11.40;;;;;;;5.54;66.20;97953.41;4156779;84;28564;-81
2022/11/18 14:51:27;;;;;;;24.65;12.05;;;;;;;4.49;68.20;97958.61;4171734;83;28517;-82
2022/11/18 14:57:30;;;;;;;22.55;11.35;;;;;;;5.23;65.99;97956.02;4164883;83;28625;-77
2022/11/18 15:03:31;;;;;;;19.55;10.00;;;;;;;4.64;65.29;97968.92;4102971;85;28534;-84
2022/11/18 15:09:33;;;;;;;22.13;10.85;;;;;;;5.23;64.72;97967.20;4158705;83;28542;-81
2022/11/18 15:15:34;;;;;;;20.00;9.53;;;;;;;5.92;63.67;97976.80;4167501;83;43911;-77
2022/11/18 15:21:35;;;;;;;22.15;10.58;;;;;;;5.15;63.87;97976.29;4178457;83;28553;-81
2022/11/18 15:27:37;;;;;;;19.92;11.15;;;;;;;6.10;62.81;97976.78;4158831;83;28497;-89
2022/11/18 15:33:38;;;;;;;22.85;11.60;;;;;;;6.19;61.55;97975.09;4171937;83;28569;-87
2022/11/18 15:39:40;;;;;;;24.27;11.95;;;;;;;5.27;62.24;97980.38;4189854;83;28488;-87
2022/11/18 15:45:41;;;;;;;23.00;11.70;;;;;;;4.72;65.36;97985.95;4100797;85;28561;-78
2022/11/18 15:51:45;;;;;;;27.32;13.13;;;;;;;5.48;64.72;97998.28;4170078;83;28558;-82
2022/11/18 15:57:46;;;;;;;21.52;11.70;;;;;;;4.62;66.29;97998.95;4135948;85;28503;-79
2022/11/18 16:03:48;;;;;;;25.12;12.18;;;;;;;5.13;64.82;98003.17;4119026;85;28488;-82
2022/11/18 16:16:21;;;;;;;24.75;11.45;;;;;;;5.16;62.86;98021.38;4133403;85;28516;-84
2022/11/18 16:22:22;;;;;;;23.25;11.68;;;;;;;5.53;61.41;98031.77;4136268;84;28510;-85
2022/11/18 16:28:23;;;;;;;21.82;10.85;;;;;;;5.41;59.90;98030.35;4127067;85;28537;-86
2022/11/18 16:34:26;;;;;;;23.20;10.53;;;;;;;5.74;60.17;98020.34;4117823;85;28545;-85
2022/11/18 16:40:28;;;;;;;21.02;10.48;;;;;;;5.55;59.77;98034.48;4211373;83;28516;-82
2022/11/18 16:46:34;;;;;;;22.75;10.25;;;;;;;5.63;59.88;98028.56;4182455;83;28572;-86
2022/11/18 16:52:35;;;;;;;21.35;10.18;;;;;;;5.28;60.43;98041.46;4102700;85;28581;-82
2022/11/18 16:58:36;;;;;;;18.48;9.30;;;;;;;6.44;58.72;98048.33;4124776;84;28487;-84
2022/11/18 17:04:38;;;;;;;18.90;9.75;;;;;;;5.65;58.01;98061.15;4109447;85;28657;-85
2022/11/18 17:10:39;;;;;;;21.40;9.63;;;;;;;6.36;57.81;98040.67;4120886;84;28484;-86
2022/11/18 17:16:41;;;;;;;18.37;9.80;;;;;;;5.72;57.89;98047.23;4126267;85;28517;-82
2022/11/18 17:22:42;;;;;;;16.05;8.50;;;;;;;6.48;57.09;98060.71;4143676;83;28523;-86
2022/11/18 17:28:44;;;;;;;21.00;9.78;;;;;;;6.22;57.09;98058.20;4075059;85;28490;-86
2022/11/18 17:34:45;;;;;;;22.17;9.70;;;;;;;6.98;55.74;98058.20;4180502;84;28517;-83
2022/11/18 17:40:56;;;;;;;19.55;9.05;;;;;;;7.35;55.28;98057.14;4175860;83;28584;-82
2022/11/18 17:46:57;;;;;;;21.60;10.25;;;;;;;5.99;56.51;98074.92;4174410;84;28476;-81
2022/11/18 17:52:59;;;;;;;20.77;9.98;;;;;;;5.11;59.73;98067.88;4168860;83;28507;-81
2022/11/18 17:59:00;;;;;;;18.65;9.35;;;;;;;5.36;59.20;98084.83;4183136;83;28551;-81
2022/11/18 18:05:02;;;;;;;19.50;9.88;;;;;;;5.27;58.38;98074.98;4096873;85;28512;-81
2022/11/18 18:11:07;;;;;;;20.50;9.20;;;;;;;5.24;58.87;98080.23;4096621;85;28477;-80
2022/11/18 18:17:09;;;;;;;18.37;9.83;;;;;;;5.22;59.63;98070.84;4161340;83;28578;-81
2022/11/18 18:23:11;;;;;;;23.35;10.30;;;;;;;5.57;59.36;98083.09;4177927;83;28508;-77
2022/11/18 18:29:13;;;;;;;16.70;9.38;;;;;;;5.26;59.24;98085.35;4148355;85;28514;-78
2022/11/18 18:35:14;;;;;;;19.12;9.53;;;;;;;5.39;58.90;98102.54;4114570;84;28584;-77
2022/11/18 18:41:20;;;;;;;22.60;10.70;;;;;;;4.75;58.52;98119.98;4098470;85;28538;-76
2022/11/18 18:47:22;;;;;;;21.20;10.60;;;;;;;4.72;59.14;98116.44;4136374;84;28541;-83
2022/11/18 18:53:23;;;;;;;18.95;9.95;;;;;;;4.92;58.66;98121.60;4143490;84;28533;-85
2022/11/18 18:59:24;;;;;;;18.77;9.43;;;;;;;5.24;57.76;98125.53;4148088;84;28557;-81
2022/11/18 19:05:28;;;;;;;19.00;8.98;;;;;;;4.91;57.47;98117.84;4135223;84;28528;-83
2022/11/18 19:17:51;;;;;;;18.35;8.45;;;;;;;4.89;56.86;98135.36;4128941;84;28475;-83
2022/11/18 19:23:56;;;;;;;19.85;9.08;;;;;;;5.06;57.70;98134.30;4145557;84;28570;-78
2022/11/18 19:30:07;;;;;;;16.77;8.68;;;;;;;4.64;57.47;98144.64;4140987;85;28524;-84
2022/11/18 19:36:09;;;;;;;15.17;7.97;;;;;;;5.02;57.10;98135.25;4141784;84;28509;-83
2022/11/18 19:42:10;;;;;;;16.82;8.88;;;;;;;5.15;57.16;98145.00;4161655;83;28503;-85
2022/11/18 19:48:12;;;;;;;17.12;8.68;;;;;;;5.19;57.29;98146.71;4163824;83;28567;-77
2022/11/18 19:54:14;;;;;;;17.10;8.13;;;;;;;4.96;57.37;98151.29;4087397;85;28518;-77
2022/11/18 20:00:18;;;;;;;17.70;9.65;;;;;;;5.06;58.23;98152.16;4161099;84;28547;-77
2022/11/18 20:06:22;;;;;;;17.75;8.85;;;;;;;5.07;58.89;98157.78;4170513;84;28514;-76
2022/11/18 20:12:25;;;;;;;16.05;8.70;;;;;;;4.14;58.85;98168.23;4155845;84;28532;-79
2022/11/18 20:18:27;;;;;;;17.70;8.35;;;;;;;4.12;59.32;98156.99;4155018;84;28498;-81
2022/11/18 20:24:32;;;;;;;15.68;7.28;;;;;;;4.57;58.55;98169.45;4165295;84;28576;-83
2022/11/18 20:30:33;;;;;;;14.28;7.15;;;;;;;3.75;57.74;98160.68;4157598;84;28531;-77
2022/11/18 20:36:36;;;;;;;16.02;7.72;;;;;;;4.17;58.38;98165.14;4149551;85;28526;-77
2022/11/18 20:48:57;;;;;;;18.50;8.38;;;;;;;5.01;57.61;98169.59;4157673;83;28550;-77
2022/11/18 20:55:00;;;;;;;16.20;7.33;;;;;;;4.54;58.89;98182.40;4152852;84;28533;-78
2022/11/18 21:01:15;;;;;;;15.40;7.53;;;;;;;4.72;57.48;98175.02;4178353;83;28549;-84
2022/11/18 21:07:18;;;;;;;13.75;6.90;;;;;;;4.10;57.36;98184.30;4123562;86;28517;-76
2022/11/18 21:19:40;;;;;;;12.43;6.70;;;;;;;4.49;57.22;98205.66;4103791;85;28500;-76
2022/11/18 21:25:43;;;;;;;11.75;6.12;;;;;;;4.88;55.56;98217.64;4148940;84;28535;-78
2022/11/18 21:31:48;;;;;;;13.83;6.20;;;;;;;4.72;54.38;98222.42;4185306;83;28549;-77
2022/11/18 21:37:49;;;;;;;11.55;6.03;;;;;;;4.97;53.89;98209.70;4152041;84;28555;-77
2022/11/18 21:43:52;;;;;;;12.78;6.42;;;;;;;4.97;53.40;98215.02;4158158;84;28510;-77
2022/11/18 21:49:53;;;;;;;11.03;5.40;;;;;;;4.53;53.11;98225.99;4166450;84;28570;-77
2022/11/18 21:56:02;;;;;;;10.70;5.83;;;;;;;4.69;52.32;98236.70;4167814;85;28549;-77
2022/11/18 22:02:03;;;;;;;10.45;5.37;;;;;;;4.91;53.18;98230.52;4146924;84;28531;-77
2022/11/18 22:08:09;;;;;;;12.03;5.78;;;;;;;4.76;53.19;98231.34;4146264;84;28515;-77
2022/11/18 22:14:10;;;;;;;15.55;6.37;;;;;;;5.06;52.67;98236.88;4160095;85;28518;-76
2022/11/18 22:20:12;;;;;;;11.63;5.67;;;;;;;5.11;53.99;98246.90;4161343;83;28505;-75
2022/11/18 22:26:17;;;;;;;15.05;6.90;;;;;;;4.19;56.22;98271.37;4188911;84;28496;-76
2022/11/18 22:32:18;;;;;;;14.25;6.72;;;;;;;4.53;57.32;98261.44;4116413;85;28548;-76
2022/11/18 22:38:19;;;;;;;15.63;7.12;;;;;;;4.33;57.70;98260.98;4182218;84;28562;-76
2022/11/18 22:44:20;;;;;;;13.60;6.53;;;;;;;4.81;58.30;98268.78;4189096;84;28541;-82
2022/11/18 22:50:22;;;;;;;13.62;6.58;;;;;;;4.67;58.29;98278.17;4188222;83;43985;-81
2022/11/18 22:56:23;;;;;;;12.82;6.60;;;;;;;4.56;58.05;98284.96;4112038;85;28571;-81
2022/11/18 23:02:24;;;;;;;13.22;6.47;;;;;;;4.72;58.05;98279.67;4177633;83;28525;-81
2022/11/18 23:08:29;;;;;;;11.20;6.08;;;;;;;5.31;57.48;98276.09;4114743;85;28512;-81
2022/11/18 23:14:30;;;;;;;12.73;6.83;;;;;;;5.22;57.60;98287.52;4176003;82;28541;-81
2022/11/18 23:20:32;;;;;;;13.45;6.03;;;;;;;3.95;59.44;98284.28;4186334;84;28527;-80
2022/11/18 23:26:33;;;;;;;13.88;6.87;;;;;;;4.92;58.65;98293.95;4121170;84;43976;-81
2022/11/18 23:32:34;;;;;;;16.48;7.30;;;;;;;4.50;59.04;98296.47;4111100;84;43984;-80
2022/11/18 23:38:36;;;;;;;13.65;6.65;;;;;;;3.59;60.37;98312.12;4110211;85;28558;-80
2022/11/18 23:44:49;;;;;;;12.13;6.53;;;;;;;3.98;60.03;98295.86;4142212;84;28535;-80
2022/11/18 23:50:59;;;;;;;12.93;6.30;;;;;;;4.39;59.17;98321.88;4165095;84;28505;-81
2022/11/18 23:57:00;;;;;;;13.00;6.15;;;;;;;4.07;60.21;98328.38;4156107;84;28496;-82
